ACF weather

Brisbane Archerfield Airport
Brisbane, Queensland, Australia

Public forecast

Using degrees Celsius for public forecast. Weather courtesy of forecast.io.

METAR (pilot weather report)

Closest report is Brisbane International Airport, 12.6 nm (23.3 km) NNE. Retrieved 2018/02/24 23:00 UTC (29 minutes ago):

YBBN 242300Z 01006KT 9999 FEW005 BKN180 26/24 Q1009 NOSIG

TAF (pilot weather forecast)

Closest forecast is Brisbane International Airport, 12.6 nm (23.3 km) NNE. Retrieved 2018/02/24 18:00 UTC (5 hours ago):

TAF YBBN 241729Z 2418/2524 35004KT 9999 MIFG FEW010 FM242100 36006KT 9999 SCT020 FM250100 01012KT 9999 -SHRA SCT030 FM251200 33008KT 9999 SCT020 FM251800 32004KT 9999 FEW012 INTER 2503/2510 4000 SHRA BKN012 PROB30 TEMPO 2503/2510 VRB20G35KT 1000 TSRA BKN010 SCT030CB